createdAt,value
2022-08-10T00:01:51.303Z,0.47
2022-08-10T00:04:23.502Z,0.52
2022-08-10T00:06:55.848Z,0.40
2022-08-10T00:09:24.126Z,2.08
2022-08-10T00:11:51.477Z,0.77
2022-08-10T00:14:19.179Z,0.40
2022-08-10T00:16:46.806Z,0.60
2022-08-10T00:19:16.464Z,0.45
2022-08-10T00:21:45.005Z,0.50
2022-08-10T00:24:12.383Z,1.17
2022-08-10T00:27:58.710Z,0.70
2022-08-10T00:29:26.972Z,0.30
2022-08-10T00:31:58.773Z,1.38
2022-08-10T00:34:28.782Z,0.77
2022-08-10T00:36:56.895Z,0.95
2022-08-10T00:39:24.508Z,0.40
2022-08-10T00:42:07.098Z,0.75
2022-08-10T00:44:48.955Z,0.60
2022-08-10T00:47:35.985Z,1.13
2022-08-10T00:50:07.273Z,0.43
2022-08-10T00:52:36.552Z,0.30
2022-08-10T00:55:05.549Z,0.82
2022-08-10T00:57:34.176Z,0.40
2022-08-10T01:00:01.822Z,0.40
2022-08-10T01:02:32.293Z,0.50
2022-08-10T01:05:04.763Z,1.38
2022-08-10T01:07:50.873Z,0.45
2022-08-10T01:10:55.686Z,0.40
2022-08-10T01:13:41.278Z,0.40
2022-08-10T01:16:27.103Z,0.60
2022-08-10T01:19:12.332Z,0.40
2022-08-10T01:21:56.542Z,0.50
2022-08-10T01:24:39.514Z,0.47
2022-08-10T01:27:37.042Z,0.28
2022-08-10T01:30:15.142Z,0.30
2022-08-10T01:33:01.126Z,1.10
2022-08-10T01:35:50.504Z,0.55
2022-08-10T01:38:37.821Z,0.32
2022-08-10T01:41:21.811Z,0.40
2022-08-10T01:44:22.199Z,0.43
2022-08-10T01:46:56.914Z,0.30
2022-08-10T01:49:26.849Z,0.40
2022-08-10T01:52:00.640Z,0.65
2022-08-10T01:54:30.381Z,0.30
2022-08-10T01:56:59.808Z,0.57
2022-08-10T01:59:32.633Z,0.95
2022-08-10T02:02:04.890Z,0.82
2022-08-10T02:04:35.736Z,0.32
2022-08-10T02:07:04.104Z,0.30
2022-08-10T02:09:35.830Z,0.30
2022-08-10T02:12:08.867Z,0.40
2022-08-10T02:14:43.156Z,0.75
2022-08-10T02:17:57.412Z,0.38
2022-08-10T02:20:14.048Z,0.90
2022-08-10T02:22:45.383Z,0.32
2022-08-10T02:25:41.439Z,0.40
2022-08-10T02:28:05.190Z,0.40
2022-08-10T02:30:33.808Z,0.30
2022-08-10T02:33:03.412Z,1.23
2022-08-10T02:35:42.170Z,0.40
2022-08-10T02:38:59.299Z,0.50
2022-08-10T02:45:15.317Z,0.50
2022-08-10T02:45:24.535Z,0.55
2022-08-10T02:47:30.164Z,1.70
2022-08-10T02:50:39.957Z,0.73
2022-08-10T02:53:54.976Z,0.50
2022-08-10T02:56:58.426Z,1.05
2022-08-10T03:00:00.291Z,0.50
2022-08-10T03:02:42.058Z,0.50
2022-08-10T03:05:13.036Z,0.50
2022-08-10T03:07:45.207Z,0.38
2022-08-10T03:10:18.527Z,0.70
2022-08-10T03:12:52.033Z,0.45
2022-08-10T03:15:22.212Z,0.47
2022-08-10T03:17:57.856Z,0.50
2022-08-10T03:20:37.247Z,0.50
2022-08-10T03:23:11.538Z,0.40
2022-08-10T03:25:39.666Z,0.55
2022-08-10T03:28:08.404Z,0.43
2022-08-10T03:30:36.954Z,0.75
2022-08-10T03:33:06.990Z,0.50
2022-08-10T03:35:34.998Z,0.50
2022-08-10T03:38:02.905Z,1.27
2022-08-10T03:40:46.129Z,0.50
2022-08-10T03:43:24.467Z,0.40
2022-08-10T03:45:56.628Z,0.45
2022-08-10T03:48:32.300Z,0.40
2022-08-10T03:51:18.683Z,1.05
2022-08-10T03:54:04.402Z,0.85
2022-08-10T03:56:35.616Z,0.75
2022-08-10T03:59:03.443Z,0.60
2022-08-10T04:02:41.634Z,0.63
2022-08-10T04:04:25.433Z,0.50
2022-08-10T04:07:00.970Z,0.52
2022-08-10T04:09:43.172Z,0.50
2022-08-10T04:12:18.210Z,1.02
2022-08-10T04:14:50.849Z,0.60
2022-08-10T04:20:40.724Z,0.68
2022-08-10T04:23:15.860Z,0.50
2022-08-10T04:25:43.495Z,0.60
2022-08-10T04:28:12.050Z,0.50
2022-08-10T04:30:41.620Z,0.50
2022-08-10T04:33:10.549Z,0.55
2022-08-10T04:35:38.995Z,0.60
2022-08-10T04:38:06.983Z,0.45
2022-08-10T04:40:34.307Z,0.50
2022-08-10T04:43:12.339Z,0.65
2022-08-10T04:45:49.716Z,1.67
2022-08-10T04:48:40.877Z,1.08
2022-08-10T04:51:17.920Z,0.60
2022-08-10T04:54:05.070Z,0.50
2022-08-10T04:56:36.790Z,0.68
2022-08-10T04:59:05.906Z,0.60
2022-08-10T05:02:30.473Z,0.50
2022-08-10T05:04:35.055Z,1.02
2022-08-10T05:10:01.047Z,0.65
2022-08-10T05:12:26.853Z,0.70
2022-08-10T05:14:54.879Z,0.77
2022-08-10T05:17:22.938Z,0.50
2022-08-10T05:20:04.402Z,0.75
2022-08-10T05:22:41.707Z,0.60
2022-08-10T05:25:15.590Z,0.85
2022-08-10T05:27:43.725Z,0.70
2022-08-10T05:30:14.180Z,1.35
2022-08-10T05:32:56.462Z,0.93
2022-08-10T05:35:28.021Z,1.45
2022-08-10T05:38:09.694Z,0.70
2022-08-10T05:40:46.537Z,0.60
2022-08-10T05:43:19.078Z,0.70
2022-08-10T05:46:17.102Z,1.38
2022-08-10T05:48:57.115Z,1.02
2022-08-10T05:51:24.514Z,0.65
2022-08-10T05:54:03.064Z,1.05
2022-08-10T05:56:55.903Z,1.85
2022-08-10T06:00:33.870Z,1.85
2022-08-10T06:02:31.502Z,1.30
2022-08-10T06:05:10.373Z,4.72
2022-08-10T06:07:49.154Z,3.13
2022-08-10T06:10:31.689Z,3.70
2022-08-10T06:13:26.875Z,4.65
2022-08-10T06:16:06.608Z,14.20
2022-08-10T06:18:34.520Z,24.20
2022-08-10T06:21:03.197Z,18.48
2022-08-10T06:23:31.839Z,14.45
2022-08-10T06:26:11.504Z,20.63
2022-08-10T06:28:58.294Z,14.48
2022-08-10T06:31:47.487Z,10.95
2022-08-10T06:34:26.172Z,11.70
2022-08-10T06:36:57.451Z,14.52
2022-08-10T06:39:34.993Z,9.85
2022-08-10T06:42:20.465Z,10.55
2022-08-10T06:47:54.201Z,11.63
2022-08-10T06:50:35.065Z,6.35
2022-08-10T06:53:24.093Z,11.20
2022-08-10T06:56:20.186Z,7.75
2022-08-10T06:59:21.082Z,8.52
2022-08-10T07:01:54.237Z,10.63
2022-08-10T07:04:54.966Z,5.00
2022-08-10T07:07:27.303Z,10.40
2022-08-10T07:09:57.288Z,6.00
2022-08-10T07:12:25.960Z,8.38
2022-08-10T07:14:55.379Z,5.57
2022-08-10T07:17:25.541Z,6.85
2022-08-10T07:19:58.339Z,8.13
2022-08-10T07:23:54.503Z,4.78
2022-08-10T07:25:26.257Z,7.82
2022-08-10T07:31:55.716Z,7.40
2022-08-10T07:34:29.790Z,6.25
2022-08-10T07:37:03.703Z,3.92
2022-08-10T07:39:59.531Z,10.02
2022-08-10T07:42:31.229Z,9.43
2022-08-10T07:44:59.349Z,5.72
2022-08-10T07:48:07.999Z,10.60
2022-08-10T07:50:39.122Z,10.98
2022-08-10T07:53:12.240Z,8.20
2022-08-10T07:56:07.523Z,9.57
2022-08-10T07:58:38.340Z,7.13
2022-08-10T08:01:05.933Z,8.60
2022-08-10T08:03:34.422Z,7.22
2022-08-10T08:06:11.476Z,8.90
2022-08-10T08:08:42.161Z,8.60
2022-08-10T08:11:25.361Z,10.82
2022-08-10T08:13:55.120Z,8.52
2022-08-10T08:16:24.330Z,14.70
2022-08-10T08:19:26.300Z,7.97
2022-08-10T08:24:09.206Z,7.47
2022-08-10T08:24:35.392Z,8.35
2022-08-10T08:27:05.243Z,9.25
2022-08-10T08:29:36.120Z,6.68
2022-08-10T08:32:04.829Z,4.47
2022-08-10T08:34:38.691Z,5.07
2022-08-10T08:37:08.856Z,10.30
2022-08-10T08:39:37.168Z,7.93
2022-08-10T08:42:38.811Z,5.43
2022-08-10T08:46:00.576Z,4.95
2022-08-10T08:48:46.839Z,4.60
2022-08-10T08:52:08.071Z,4.22
2022-08-10T08:54:48.616Z,4.43
2022-08-10T08:57:49.328Z,4.75
2022-08-10T09:00:43.766Z,9.02
2022-08-10T09:03:32.094Z,5.95
2022-08-10T09:06:37.389Z,4.47
2022-08-10T09:09:24.686Z,3.50
2022-08-10T09:12:17.551Z,2.03
2022-08-10T09:14:58.522Z,2.65
2022-08-10T09:17:43.791Z,2.22
2022-08-10T09:20:17.032Z,6.50
2022-08-10T09:22:57.575Z,8.18
2022-08-10T09:25:35.594Z,4.20
2022-08-10T09:28:11.869Z,3.75
2022-08-10T09:31:10.969Z,6.47
2022-08-10T09:36:22.288Z,2.90
2022-08-10T09:36:58.364Z,4.45
2022-08-10T09:40:12.316Z,3.60
2022-08-10T09:42:35.725Z,3.05
2022-08-10T09:45:09.970Z,4.18
2022-08-10T09:48:00.939Z,2.38
2022-08-10T09:51:16.397Z,3.28
2022-08-10T09:53:48.767Z,2.47
2022-08-10T09:56:45.921Z,2.72
2022-08-10T10:00:00.568Z,1.85
2022-08-10T10:02:41.717Z,2.42
2022-08-10T10:05:15.169Z,1.85
2022-08-10T10:07:51.369Z,1.93
2022-08-10T10:10:24.636Z,3.03
2022-08-10T10:13:11.798Z,1.90
2022-08-10T10:15:54.947Z,2.75
2022-08-10T10:18:48.041Z,1.50
2022-08-10T10:21:54.810Z,1.55
2022-08-10T10:24:47.494Z,1.42
2022-08-10T10:27:27.847Z,2.40
2022-08-10T10:30:09.427Z,2.20
2022-08-10T10:32:47.547Z,1.88
2022-08-10T10:35:34.170Z,2.72
2022-08-10T10:38:04.552Z,1.27
2022-08-10T10:40:55.479Z,1.60
2022-08-10T10:43:39.119Z,3.22
2022-08-10T10:46:31.946Z,1.33
2022-08-10T10:49:21.311Z,1.33
2022-08-10T10:52:12.393Z,2.35
2022-08-10T10:54:59.958Z,2.42
2022-08-10T10:57:58.575Z,2.10
2022-08-10T11:00:39.605Z,3.17
2022-08-10T11:03:27.123Z,1.65
2022-08-10T11:06:13.093Z,1.65
2022-08-10T11:08:47.147Z,1.50
2022-08-10T11:12:01.873Z,1.40
2022-08-10T11:14:33.200Z,3.35
2022-08-10T11:17:20.219Z,2.15
2022-08-10T11:20:01.327Z,1.98
2022-08-10T11:23:21.073Z,2.95
2022-08-10T11:26:23.830Z,3.08
2022-08-10T11:29:03.302Z,3.55
2022-08-10T11:31:49.492Z,3.55
2022-08-10T11:35:11.323Z,3.40
2022-08-10T11:38:31.999Z,4.53
2022-08-10T11:41:00.103Z,5.18
2022-08-10T11:43:54.295Z,5.15
2022-08-10T11:46:42.849Z,5.80
2022-08-10T11:49:24.965Z,5.88
2022-08-10T11:52:08.835Z,6.57
2022-08-10T11:54:43.204Z,6.82
2022-08-10T11:59:59.524Z,9.73
2022-08-10T12:02:47.725Z,10.05
2022-08-10T12:05:21.553Z,10.02
2022-08-10T12:10:10.474Z,10.07
2022-08-10T12:10:42.702Z,10.82
2022-08-10T12:13:23.767Z,11.73
2022-08-10T12:16:15.148Z,10.60
2022-08-10T12:18:57.714Z,11.63
2022-08-10T12:21:40.613Z,14.02
2022-08-10T12:24:28.886Z,15.02
2022-08-10T12:27:20.382Z,13.25
2022-08-10T12:29:58.034Z,15.48
2022-08-10T12:32:51.927Z,13.10
2022-08-10T12:35:34.007Z,14.25
2022-08-10T12:38:23.566Z,12.18
2022-08-10T12:40:59.481Z,13.55
2022-08-10T12:44:04.833Z,16.08
2022-08-10T12:46:46.509Z,15.73
2022-08-10T12:49:37.032Z,12.68
2022-08-10T12:52:19.887Z,17.00
2022-08-10T12:54:48.086Z,17.75
2022-08-10T12:57:19.210Z,17.90
2022-08-10T12:59:53.239Z,15.05
2022-08-10T13:02:29.689Z,17.67
2022-08-10T13:04:59.750Z,14.70
2022-08-10T13:08:25.327Z,13.95
2022-08-10T13:10:21.088Z,15.35
2022-08-10T13:12:52.239Z,16.35
2022-08-10T13:15:50.647Z,16.95
2022-08-10T13:18:25.014Z,16.83
2022-08-10T13:20:56.311Z,13.85
2022-08-10T13:23:30.081Z,15.05
2022-08-10T13:26:00.819Z,15.63
2022-08-10T13:28:47.422Z,14.90
2022-08-10T13:32:03.320Z,15.75
2022-08-10T13:34:44.026Z,17.67
2022-08-10T13:37:16.052Z,16.10
2022-08-10T13:39:59.512Z,15.75
2022-08-10T13:42:37.701Z,18.55
2022-08-10T13:45:11.919Z,16.10
2022-08-10T13:50:34.880Z,15.38
2022-08-10T13:53:13.934Z,14.98
2022-08-10T13:55:56.431Z,15.80
2022-08-10T13:58:31.111Z,18.13
2022-08-10T14:01:01.621Z,17.20
2022-08-10T14:03:34.432Z,19.10
2022-08-10T14:06:05.185Z,17.02
2022-08-10T14:08:35.360Z,19.02
2022-08-10T14:11:11.281Z,17.80
2022-08-10T14:13:52.195Z,15.07
2022-08-10T14:16:20.920Z,16.55
2022-08-10T14:18:52.024Z,16.75
2022-08-10T14:21:20.302Z,15.10
2022-08-10T14:23:53.223Z,16.17
2022-08-10T14:26:31.477Z,17.60
2022-08-10T14:29:08.376Z,16.63
2022-08-10T14:31:40.810Z,18.15
2022-08-10T14:36:05.058Z,16.40
2022-08-10T14:37:33.064Z,16.23
2022-08-10T14:40:19.043Z,15.73
2022-08-10T14:43:01.658Z,14.73
2022-08-10T14:45:34.457Z,15.73
2022-08-10T14:48:23.563Z,16.25
2022-08-10T14:51:00.868Z,16.45
2022-08-10T14:53:34.672Z,16.88
2022-08-10T14:56:15.480Z,15.13
2022-08-10T14:59:09.421Z,20.27
2022-08-10T15:01:59.817Z,18.30
2022-08-10T15:04:30.617Z,14.95
2022-08-10T15:07:10.742Z,14.15
2022-08-10T15:10:00.386Z,17.88
2022-08-10T15:12:38.839Z,14.50
2022-08-10T15:15:11.124Z,15.27
2022-08-10T15:17:49.217Z,14.50
2022-08-10T15:20:26.471Z,14.98
2022-08-10T15:23:03.796Z,15.20
2022-08-10T15:25:36.449Z,15.32
2022-08-10T15:28:08.220Z,13.98
2022-08-10T15:30:45.252Z,13.88
2022-08-10T15:34:03.568Z,12.95
2022-08-10T15:37:02.289Z,12.32
2022-08-10T15:40:24.051Z,12.45
2022-08-10T15:43:00.119Z,11.98
2022-08-10T15:45:28.221Z,12.43
2022-08-10T15:48:01.135Z,12.98
2022-08-10T15:50:43.849Z,12.02
2022-08-10T15:53:16.660Z,11.40
2022-08-10T15:55:54.822Z,10.43
2022-08-10T15:58:39.659Z,10.88
2022-08-10T16:02:13.971Z,16.80
2022-08-10T16:04:32.141Z,20.70
2022-08-10T16:07:07.604Z,22.45
2022-08-10T16:10:26.381Z,19.88
2022-08-10T16:12:34.622Z,20.02
2022-08-10T16:15:13.232Z,17.75
2022-08-10T16:17:55.705Z,13.32
2022-08-10T16:20:53.552Z,13.02
2022-08-10T16:23:32.623Z,13.48
2022-08-10T16:26:13.528Z,12.43
2022-08-10T16:28:50.953Z,18.15
2022-08-10T16:31:27.625Z,15.25
2022-08-10T16:33:58.504Z,20.27
2022-08-10T16:36:59.619Z,14.52
2022-08-10T16:39:58.201Z,13.68
2022-08-10T16:42:23.385Z,11.00
2022-08-10T16:45:13.148Z,15.95
2022-08-10T16:47:53.337Z,20.27
2022-08-10T16:50:32.286Z,15.35
2022-08-10T16:53:03.175Z,18.70
2022-08-10T16:55:48.196Z,18.48
2022-08-10T16:58:27.196Z,13.80
2022-08-10T17:01:12.741Z,12.98
2022-08-10T17:04:08.632Z,12.73
2022-08-10T17:06:33.431Z,10.82
2022-08-10T17:09:03.147Z,9.32
2022-08-10T17:11:34.767Z,13.77
2022-08-10T17:14:06.975Z,12.23
2022-08-10T17:16:50.874Z,12.40
2022-08-10T17:19:21.871Z,8.27
2022-08-10T17:21:58.234Z,9.18
2022-08-10T17:24:40.649Z,9.68
2022-08-10T17:28:05.181Z,22.27
2022-08-10T17:30:04.416Z,13.93
2022-08-10T17:32:45.506Z,14.70
2022-08-10T17:35:23.686Z,12.25
2022-08-10T17:38:19.447Z,18.02
2022-08-10T17:40:48.675Z,19.50
2022-08-10T17:43:46.331Z,30.83
2022-08-10T17:46:13.475Z,36.53
2022-08-10T17:48:42.913Z,28.02
2022-08-10T17:51:13.901Z,23.48
2022-08-10T17:53:44.550Z,28.45
2022-08-10T17:56:16.545Z,33.78
2022-08-10T17:58:55.848Z,43.28
2022-08-10T18:01:40.502Z,40.55
2022-08-10T18:04:19.225Z,71.50
2022-08-10T18:06:54.762Z,96.47
2022-08-10T18:09:30.763Z,111.53
2022-08-10T18:12:10.386Z,89.70
2022-08-10T18:14:48.212Z,142.63
2022-08-10T18:17:23.006Z,124.18
2022-08-10T18:20:00.020Z,134.88
2022-08-10T18:22:29.425Z,124.40
2022-08-10T18:24:59.521Z,125.35
2022-08-10T18:28:08.492Z,107.90
2022-08-10T18:30:19.239Z,101.22
2022-08-10T18:32:50.002Z,101.82
2022-08-10T18:35:19.906Z,89.93
2022-08-10T18:37:50.438Z,89.68
2022-08-10T18:40:18.878Z,85.70
2022-08-10T18:42:48.163Z,86.43
2022-08-10T18:45:27.608Z,75.22
2022-08-10T18:48:08.754Z,74.35
2022-08-10T18:50:52.384Z,77.32
2022-08-10T18:53:53.739Z,65.35
2022-08-10T18:56:35.901Z,53.80
2022-08-10T18:59:15.178Z,46.13
2022-08-10T19:02:07.185Z,53.60
2022-08-10T19:05:30.483Z,44.13
2022-08-10T19:08:33.509Z,36.60
2022-08-10T19:11:21.483Z,40.15
2022-08-10T19:14:17.974Z,52.38
2022-08-10T19:17:26.773Z,33.35
2022-08-10T19:20:46.359Z,38.95
2022-08-10T19:23:28.941Z,36.60
2022-08-10T19:26:43.301Z,36.13
2022-08-10T19:30:08.829Z,27.98
2022-08-10T19:32:28.748Z,23.42
2022-08-10T19:35:05.131Z,17.40
2022-08-10T19:38:00.136Z,11.77
2022-08-10T19:41:09.945Z,19.52
2022-08-10T19:44:00.092Z,14.75
2022-08-10T19:46:56.631Z,13.50
2022-08-10T19:49:57.590Z,9.93
2022-08-10T19:52:33.667Z,6.88
2022-08-10T19:55:25.591Z,4.80
2022-08-10T19:58:02.394Z,7.40
2022-08-10T20:00:46.735Z,8.95
2022-08-10T20:03:23.338Z,11.68
2022-08-10T20:06:20.599Z,8.02
2022-08-10T20:09:00.826Z,11.15
2022-08-10T20:12:06.282Z,12.35
2022-08-10T20:14:36.152Z,17.63
2022-08-10T20:17:09.542Z,14.45
2022-08-10T20:19:52.977Z,20.43
2022-08-10T20:22:30.397Z,20.60
2022-08-10T20:25:05.334Z,15.70
2022-08-10T20:28:01.300Z,16.92
2022-08-10T20:30:35.818Z,18.08
2022-08-10T20:33:08.700Z,15.88
2022-08-10T20:35:45.284Z,15.82
2022-08-10T20:38:28.892Z,18.33
2022-08-10T20:41:43.690Z,12.40
2022-08-10T20:44:55.429Z,16.95
2022-08-10T20:48:01.373Z,12.07
2022-08-10T20:50:43.968Z,12.82
2022-08-10T20:53:14.785Z,13.25
2022-08-10T20:56:11.524Z,13.82
2022-08-10T20:59:14.489Z,12.90
2022-08-10T21:02:07.439Z,15.10
2022-08-10T21:04:51.844Z,17.15
2022-08-10T21:08:01.286Z,15.10
2022-08-10T21:10:55.121Z,11.88
2022-08-10T21:13:44.999Z,12.52
2022-08-10T21:16:15.123Z,12.98
2022-08-10T21:19:06.618Z,12.77
2022-08-10T21:21:59.404Z,12.95
2022-08-10T21:24:52.251Z,12.93
2022-08-10T21:27:48.555Z,10.43
2022-08-10T21:30:20.526Z,11.85
2022-08-10T21:33:14.849Z,10.70
2022-08-10T21:36:07.776Z,12.38
2022-08-10T21:39:10.164Z,10.00
2022-08-10T21:42:25.848Z,11.88
2022-08-10T21:45:59.116Z,14.25
2022-08-10T21:49:04.818Z,14.25
2022-08-10T21:52:07.033Z,12.23
2022-08-10T21:55:19.085Z,11.30
2022-08-10T21:58:43.289Z,13.40
2022-08-10T22:01:36.563Z,11.40
2022-08-10T22:04:26.532Z,11.60
2022-08-10T22:07:16.174Z,11.90
2022-08-10T22:10:05.780Z,13.43
2022-08-10T22:13:00.529Z,11.57
2022-08-10T22:16:05.610Z,12.15
2022-08-10T22:22:41.558Z,10.95
2022-08-10T22:26:06.427Z,12.20
2022-08-10T22:29:09.505Z,11.30
2022-08-10T22:31:27.336Z,13.63
2022-08-10T22:32:17.273Z,12.05
2022-08-10T22:35:41.207Z,12.10
2022-08-10T22:39:04.584Z,9.50
2022-08-10T22:42:23.372Z,10.52
2022-08-10T22:45:13.776Z,8.57
2022-08-10T22:48:04.763Z,9.07
2022-08-10T22:50:33.396Z,9.70
2022-08-10T22:53:07.609Z,8.65
2022-08-10T22:56:08.646Z,8.90
2022-08-10T22:58:40.570Z,8.25
2022-08-10T23:01:35.096Z,7.15
2022-08-10T23:04:16.551Z,6.97
2022-08-10T23:06:54.405Z,7.18
2022-08-10T23:09:25.694Z,6.93
2022-08-10T23:12:00.610Z,7.85
2022-08-10T23:14:36.132Z,7.20
2022-08-10T23:18:00.464Z,6.20
2022-08-10T23:20:20.984Z,5.60
2022-08-10T23:22:57.406Z,7.57
2022-08-10T23:25:30.094Z,5.93
2022-08-10T23:28:03.047Z,5.78
2022-08-10T23:30:45.176Z,6.45
2022-08-10T23:33:17.694Z,6.53
2022-08-10T23:36:34.194Z,7.10
2022-08-10T23:39:26.526Z,5.30
2022-08-10T23:41:52.876Z,5.68
2022-08-10T23:46:50.072Z,5.43
2022-08-10T23:49:19.024Z,6.60
2022-08-10T23:51:55.462Z,6.68
2022-08-10T23:54:26.490Z,5.95
2022-08-10T23:57:01.048Z,5.10
2022-08-10T23:59:31.953Z,4.75
